createdAt,value
2017-08-22T00:01:27.998Z,11.00
2017-08-22T00:03:55.535Z,11.00
2017-08-22T00:06:23.056Z,10.90
2017-08-22T00:08:50.772Z,10.90
2017-08-22T00:11:18.304Z,11.00
2017-08-22T00:13:45.923Z,11.00
2017-08-22T00:16:13.531Z,11.20
2017-08-22T00:18:41.051Z,11.10
2017-08-22T00:21:08.551Z,11.00
2017-08-22T00:23:36.163Z,10.90
2017-08-22T00:26:03.703Z,10.90
2017-08-22T00:28:31.207Z,10.90
2017-08-22T00:30:58.734Z,10.90
2017-08-22T00:33:26.263Z,11.00
2017-08-22T00:35:53.862Z,11.10
2017-08-22T00:38:21.364Z,11.10
2017-08-22T00:40:48.887Z,11.10
2017-08-22T00:43:16.456Z,11.10
2017-08-22T00:45:43.986Z,11.00
2017-08-22T00:48:11.513Z,11.00
2017-08-22T00:50:39.087Z,10.90
2017-08-22T00:53:06.588Z,10.70
2017-08-22T00:55:34.108Z,10.70
2017-08-22T00:58:01.671Z,10.60
2017-08-22T01:00:29.265Z,10.60
2017-08-22T01:02:56.764Z,10.70
2017-08-22T01:05:24.319Z,10.60
2017-08-22T01:07:51.819Z,10.50
2017-08-22T01:10:19.379Z,10.60
2017-08-22T01:12:47.158Z,10.50
2017-08-22T01:15:14.676Z,10.40
2017-08-22T01:17:42.263Z,10.30
2017-08-22T01:20:09.839Z,10.30
2017-08-22T01:22:37.343Z,10.40
2017-08-22T01:25:04.917Z,10.40
2017-08-22T01:27:32.455Z,10.30
2017-08-22T01:30:00.009Z,10.30
2017-08-22T01:32:27.613Z,10.20
2017-08-22T01:34:55.707Z,10.20
2017-08-22T01:37:23.258Z,10.20
2017-08-22T01:39:50.771Z,10.20
2017-08-22T01:42:18.328Z,10.40
2017-08-22T01:44:45.889Z,10.40
2017-08-22T01:47:13.415Z,10.40
2017-08-22T01:49:40.972Z,10.20
2017-08-22T01:52:08.475Z,10.20
2017-08-22T01:54:35.975Z,10.20
2017-08-22T01:57:03.524Z,10.20
2017-08-22T01:59:31.039Z,10.20
2017-08-22T02:01:58.547Z,10.20
2017-08-22T02:04:26.124Z,10.10
2017-08-22T02:06:53.633Z,10.00
2017-08-22T02:09:21.660Z,10.00
2017-08-22T02:11:49.240Z,10.10
2017-08-22T02:14:16.750Z,10.10
2017-08-22T02:16:44.255Z,10.00
2017-08-22T02:19:11.803Z,9.90
2017-08-22T02:21:39.338Z,9.90
2017-08-22T02:24:12.719Z,9.80
2017-08-22T02:26:40.278Z,9.90
2017-08-22T02:29:07.784Z,10.00
2017-08-22T02:31:35.283Z,10.00
2017-08-22T02:34:02.967Z,9.90
2017-08-22T02:36:30.513Z,10.00
2017-08-22T02:38:58.011Z,9.90
2017-08-22T02:41:25.897Z,9.80
2017-08-22T02:43:53.404Z,10.00
2017-08-22T02:46:21.327Z,10.00
2017-08-22T02:48:49.163Z,9.90
2017-08-22T02:51:16.849Z,9.90
2017-08-22T02:53:44.906Z,9.90
2017-08-22T02:56:12.491Z,9.90
2017-08-22T02:58:40.095Z,9.80
2017-08-22T03:01:07.587Z,9.70
2017-08-22T03:03:35.143Z,9.80
2017-08-22T03:06:02.888Z,9.70
2017-08-22T03:08:30.391Z,9.70
2017-08-22T03:10:57.947Z,9.80
2017-08-22T03:13:25.655Z,9.70
2017-08-22T03:15:53.198Z,9.60
2017-08-22T03:18:20.779Z,9.50
2017-08-22T03:20:48.283Z,9.50
2017-08-22T03:23:15.874Z,9.60
2017-08-22T03:25:43.460Z,9.60
2017-08-22T03:28:10.969Z,9.60
2017-08-22T03:30:38.504Z,9.60
2017-08-22T03:33:06.487Z,9.60
2017-08-22T03:35:34.399Z,9.60
2017-08-22T03:38:02.075Z,9.50
2017-08-22T03:40:29.882Z,9.50
2017-08-22T03:42:57.475Z,9.50
2017-08-22T03:45:24.979Z,9.40
2017-08-22T03:47:52.547Z,9.30
2017-08-22T03:50:20.134Z,9.20
2017-08-22T03:52:47.655Z,9.20
2017-08-22T03:55:15.551Z,9.20
2017-08-22T03:57:43.045Z,9.20
2017-08-22T04:00:10.548Z,9.20
2017-08-22T04:02:38.571Z,9.20
2017-08-22T04:05:06.075Z,9.20
2017-08-22T04:07:33.755Z,9.20
2017-08-22T04:10:01.329Z,9.30
2017-08-22T04:12:28.898Z,9.30
2017-08-22T04:14:56.439Z,9.20
2017-08-22T04:17:24.104Z,9.20
2017-08-22T04:19:51.683Z,9.30
2017-08-22T04:22:19.251Z,9.20
2017-08-22T04:24:46.803Z,9.10
2017-08-22T04:27:14.355Z,9.00
2017-08-22T04:29:41.894Z,9.00
2017-08-22T04:32:09.466Z,9.00
2017-08-22T04:34:36.970Z,9.00
2017-08-22T04:37:04.645Z,9.00
2017-08-22T04:39:32.316Z,9.00
2017-08-22T04:41:59.841Z,9.00
2017-08-22T04:44:27.494Z,9.10
2017-08-22T04:46:55.280Z,9.20
2017-08-22T04:49:22.927Z,9.30
2017-08-22T04:51:50.780Z,9.30
2017-08-22T04:54:18.511Z,9.20
2017-08-22T04:56:46.027Z,9.30
2017-08-22T04:59:13.591Z,9.40
2017-08-22T05:01:41.222Z,9.40
2017-08-22T05:04:08.851Z,9.50
2017-08-22T05:06:36.346Z,9.50
2017-08-22T05:09:04.161Z,9.50
2017-08-22T05:11:31.672Z,9.60
2017-08-22T05:13:59.186Z,9.80
2017-08-22T05:16:26.866Z,9.90
2017-08-22T05:18:54.500Z,10.40
2017-08-22T05:21:22.056Z,10.90
2017-08-22T05:23:49.598Z,11.40
2017-08-22T05:26:17.120Z,12.00
2017-08-22T05:28:44.735Z,12.50
2017-08-22T05:31:12.303Z,13.00
2017-08-22T05:33:39.823Z,13.80
2017-08-22T05:36:07.323Z,14.30
2017-08-22T05:38:34.887Z,14.70
2017-08-22T05:41:02.548Z,15.40
2017-08-22T05:43:30.331Z,16.00
2017-08-22T05:45:57.991Z,16.30
2017-08-22T05:48:25.500Z,16.20
2017-08-22T05:50:53.008Z,15.40
2017-08-22T05:53:20.539Z,15.20
2017-08-22T05:55:48.061Z,15.50
2017-08-22T05:58:15.635Z,15.60
2017-08-22T06:00:43.227Z,15.30
2017-08-22T06:03:10.727Z,15.00
2017-08-22T06:05:38.283Z,14.90
2017-08-22T06:08:06.143Z,14.90
2017-08-22T06:10:33.706Z,14.60
2017-08-22T06:13:02.003Z,14.50
2017-08-22T06:15:29.511Z,14.50
2017-08-22T06:17:57.031Z,14.60
2017-08-22T06:20:24.647Z,14.90
2017-08-22T06:22:52.193Z,15.00
2017-08-22T06:25:19.703Z,15.20
2017-08-22T06:27:47.542Z,15.00
2017-08-22T06:30:15.067Z,15.40
2017-08-22T06:32:42.581Z,15.70
2017-08-22T06:35:10.136Z,15.40
2017-08-22T06:37:37.749Z,15.40
2017-08-22T06:40:05.248Z,15.40
2017-08-22T06:42:33.203Z,15.40
2017-08-22T06:45:00.705Z,15.80
2017-08-22T06:47:28.207Z,16.20
2017-08-22T06:49:56.047Z,16.40
2017-08-22T06:52:23.591Z,16.60
2017-08-22T06:54:51.099Z,16.70
2017-08-22T06:57:18.642Z,17.10
2017-08-22T06:59:46.175Z,17.30
2017-08-22T07:02:13.683Z,18.00
2017-08-22T07:04:41.287Z,18.90
2017-08-22T07:07:09.242Z,19.30
2017-08-22T07:09:36.770Z,19.80
2017-08-22T07:12:04.435Z,20.10
2017-08-22T07:14:32.639Z,21.50
2017-08-22T07:17:00.143Z,22.50
2017-08-22T07:19:27.807Z,23.60
2017-08-22T07:21:55.315Z,23.90
2017-08-22T07:24:22.811Z,24.20
2017-08-22T07:26:50.743Z,23.60
2017-08-22T07:29:18.244Z,23.80
2017-08-22T07:31:45.747Z,24.40
2017-08-22T07:34:14.675Z,24.20
2017-08-22T07:36:42.871Z,24.50
2017-08-22T07:39:10.392Z,25.00
2017-08-22T07:41:37.973Z,24.80
2017-08-22T07:44:05.475Z,24.70
2017-08-22T07:46:33.231Z,25.70
2017-08-22T07:49:00.857Z,26.10
2017-08-22T07:51:28.368Z,25.60
2017-08-22T07:53:56.044Z,24.90
2017-08-22T07:56:23.797Z,25.50
2017-08-22T07:58:51.343Z,25.70
2017-08-22T08:01:47.864Z,25.90
2017-08-22T08:04:15.740Z,26.30
2017-08-22T08:06:43.267Z,26.90
2017-08-22T08:09:11.062Z,27.50
2017-08-22T08:11:38.810Z,27.80
2017-08-22T08:14:06.315Z,27.40
2017-08-22T08:16:34.547Z,27.70
2017-08-22T08:19:02.042Z,27.90
2017-08-22T08:21:29.969Z,28.80
2017-08-22T08:23:57.799Z,29.00
2017-08-22T08:26:25.299Z,28.20
2017-08-22T08:28:52.831Z,28.90
2017-08-22T08:31:20.615Z,28.70
2017-08-22T08:33:48.153Z,28.90
2017-08-22T08:36:15.718Z,28.30
2017-08-22T08:38:43.512Z,28.00
2017-08-22T08:41:11.021Z,27.80
2017-08-22T08:43:38.524Z,27.90
2017-08-22T08:46:06.279Z,27.70
2017-08-22T08:48:34.384Z,28.30
2017-08-22T08:51:02.200Z,29.20
2017-08-22T08:53:29.737Z,29.80
2017-08-22T08:55:57.248Z,30.10
2017-08-22T08:58:25.118Z,28.90
2017-08-22T09:00:52.615Z,29.00
2017-08-22T09:03:20.158Z,28.70
2017-08-22T09:05:48.658Z,28.70
2017-08-22T09:08:16.204Z,28.70
2017-08-22T09:10:43.595Z,30.10
2017-08-22T09:13:10.988Z,30.10
2017-08-22T09:15:38.607Z,29.90
2017-08-22T09:18:06.447Z,29.80
2017-08-22T09:20:34.356Z,29.70
2017-08-22T09:23:01.685Z,29.70
2017-08-22T09:25:29.010Z,29.70
2017-08-22T09:27:56.591Z,28.20
2017-08-22T09:30:24.055Z,29.00
2017-08-22T09:32:51.579Z,30.40
2017-08-22T09:35:19.085Z,30.70
2017-08-22T09:37:47.212Z,30.40
2017-08-22T09:40:15.611Z,30.50
2017-08-22T09:42:43.756Z,30.20
2017-08-22T09:45:11.274Z,30.50
2017-08-22T09:47:38.820Z,30.40
2017-08-22T09:50:06.327Z,30.10
2017-08-22T09:52:33.823Z,29.40
2017-08-22T09:55:01.252Z,29.90
2017-08-22T09:57:28.751Z,30.70
2017-08-22T09:59:56.798Z,31.50
2017-08-22T10:02:24.323Z,32.10
2017-08-22T10:04:51.954Z,32.40
2017-08-22T10:07:19.594Z,30.90
2017-08-22T10:09:47.275Z,31.20
2017-08-22T10:12:15.042Z,31.10
2017-08-22T10:14:42.784Z,29.90
2017-08-22T10:17:10.484Z,31.00
2017-08-22T10:19:38.377Z,30.90
2017-08-22T10:22:06.117Z,32.20
2017-08-22T10:24:33.884Z,32.60
2017-08-22T10:27:01.634Z,32.20
2017-08-22T10:29:29.659Z,31.70
2017-08-22T10:31:57.524Z,31.50
2017-08-22T10:34:26.120Z,30.30
2017-08-22T10:36:53.862Z,30.70
2017-08-22T10:39:21.427Z,31.70
2017-08-22T10:41:48.943Z,29.80
2017-08-22T10:44:16.739Z,29.10
2017-08-22T10:46:44.234Z,29.70
2017-08-22T10:49:11.731Z,30.30
2017-08-22T10:51:39.292Z,30.20
2017-08-22T10:54:06.797Z,28.90
2017-08-22T10:56:34.570Z,28.30
2017-08-22T10:59:02.423Z,28.50
2017-08-22T11:01:29.923Z,29.10
2017-08-22T11:03:58.067Z,29.20
2017-08-22T11:06:25.931Z,29.70
2017-08-22T11:08:54.263Z,28.80
2017-08-22T11:11:22.076Z,28.80
2017-08-22T11:13:50.322Z,29.70
2017-08-22T11:16:17.972Z,31.50
2017-08-22T11:18:45.469Z,31.80
2017-08-22T11:21:13.303Z,30.00
2017-08-22T11:23:41.094Z,28.90
2017-08-22T11:26:09.260Z,29.70
2017-08-22T11:28:36.787Z,29.20
2017-08-22T11:31:04.290Z,30.70
2017-08-22T11:33:31.877Z,31.80
2017-08-22T11:35:59.411Z,31.50
2017-08-22T11:38:26.979Z,30.50
2017-08-22T11:40:55.298Z,28.40
2017-08-22T11:43:22.798Z,28.40
2017-08-22T11:45:50.300Z,28.40
2017-08-22T11:48:18.038Z,28.50
2017-08-22T11:50:45.549Z,28.90
2017-08-22T11:53:13.614Z,29.10
2017-08-22T11:55:41.255Z,29.70
2017-08-22T11:58:08.775Z,29.80
2017-08-22T12:00:36.563Z,28.70
2017-08-22T12:03:04.083Z,29.40
2017-08-22T12:05:31.871Z,29.00
2017-08-22T12:07:59.443Z,29.00
2017-08-22T12:10:27.588Z,28.70
2017-08-22T12:12:55.483Z,28.40
2017-08-22T12:15:23.880Z,29.70
2017-08-22T12:17:51.416Z,29.70
2017-08-22T12:20:19.230Z,30.40
2017-08-22T12:22:46.730Z,31.30
2017-08-22T12:25:14.287Z,31.50
2017-08-22T12:27:41.901Z,31.50
2017-08-22T12:30:09.417Z,29.80
2017-08-22T12:32:36.962Z,30.50
2017-08-22T12:35:04.755Z,31.00
2017-08-22T12:37:32.279Z,32.40
2017-08-22T12:39:59.780Z,31.90
2017-08-22T12:42:27.341Z,30.30
2017-08-22T12:44:54.939Z,29.10
2017-08-22T12:47:22.984Z,29.70
2017-08-22T12:49:50.512Z,28.90
2017-08-22T12:52:18.456Z,27.60
2017-08-22T12:54:46.032Z,27.00
2017-08-22T12:57:13.783Z,26.70
2017-08-22T12:59:41.326Z,26.30
2017-08-22T13:02:08.903Z,25.80
2017-08-22T13:04:36.587Z,25.50
2017-08-22T13:07:04.086Z,26.50
2017-08-22T13:09:32.397Z,27.30
2017-08-22T13:11:59.916Z,27.70
2017-08-22T13:14:27.563Z,28.50
2017-08-22T13:16:55.493Z,30.00
2017-08-22T13:19:23.007Z,30.30
2017-08-22T13:21:50.994Z,30.70
2017-08-22T13:24:18.742Z,32.50
2017-08-22T13:26:46.251Z,33.90
2017-08-22T13:29:13.786Z,33.90
2017-08-22T13:31:41.115Z,34.20
2017-08-22T13:34:08.606Z,32.20
2017-08-22T13:36:36.503Z,30.70
2017-08-22T13:39:04.606Z,29.90
2017-08-22T13:41:32.534Z,30.20
2017-08-22T13:44:00.039Z,31.40
2017-08-22T13:46:27.575Z,33.00
2017-08-22T13:48:55.199Z,34.10
2017-08-22T13:51:22.539Z,34.50
2017-08-22T13:53:50.038Z,34.60
2017-08-22T13:56:17.539Z,33.10
2017-08-22T13:58:45.063Z,31.30
2017-08-22T14:01:12.739Z,31.60
2017-08-22T14:03:40.523Z,32.20
2017-08-22T14:06:08.021Z,32.10
2017-08-22T14:08:35.563Z,30.30
2017-08-22T14:11:03.469Z,29.60
2017-08-22T14:13:32.038Z,30.20
2017-08-22T14:15:59.556Z,30.20
2017-08-22T14:18:27.391Z,30.70
2017-08-22T14:20:54.890Z,29.90
2017-08-22T14:23:22.391Z,29.50
2017-08-22T14:25:50.051Z,29.40
2017-08-22T14:28:17.567Z,29.60
2017-08-22T14:30:45.076Z,28.50
2017-08-22T14:33:12.655Z,29.00
2017-08-22T14:35:40.160Z,29.70
2017-08-22T14:38:07.657Z,30.30
2017-08-22T14:40:35.250Z,31.00
2017-08-22T14:43:02.744Z,30.50
2017-08-22T14:45:30.239Z,30.70
2017-08-22T14:47:57.767Z,31.10
2017-08-22T14:50:25.271Z,30.50
2017-08-22T14:52:53.130Z,30.40
2017-08-22T14:55:20.635Z,30.90
2017-08-22T14:57:48.147Z,31.20
2017-08-22T15:00:15.758Z,31.40
2017-08-22T15:02:43.263Z,31.00
2017-08-22T15:05:10.771Z,31.00
2017-08-22T15:07:38.322Z,30.30
2017-08-22T15:10:05.917Z,29.40
2017-08-22T15:12:33.775Z,29.50
2017-08-22T15:15:01.310Z,29.80
2017-08-22T15:17:28.884Z,30.20
2017-08-22T15:19:56.419Z,29.80
2017-08-22T15:22:24.323Z,29.60
2017-08-22T15:24:51.822Z,29.50
2017-08-22T15:27:19.339Z,28.40
2017-08-22T15:29:47.236Z,28.50
2017-08-22T15:32:14.743Z,28.00
2017-08-22T15:34:42.247Z,28.20
2017-08-22T15:37:09.807Z,28.20
2017-08-22T15:39:37.373Z,28.60
2017-08-22T15:42:05.318Z,28.20
2017-08-22T15:44:32.871Z,28.40
2017-08-22T15:47:00.408Z,28.10
2017-08-22T15:49:27.913Z,28.10
2017-08-22T15:51:55.570Z,27.40
2017-08-22T15:54:23.432Z,27.40
2017-08-22T15:56:50.954Z,27.20
2017-08-22T15:59:18.969Z,27.60
2017-08-22T16:01:46.608Z,27.10
2017-08-22T16:04:14.111Z,26.80
2017-08-22T16:06:42.055Z,26.70
2017-08-22T16:09:09.559Z,26.20
2017-08-22T16:11:37.281Z,26.60
2017-08-22T16:14:05.291Z,26.80
2017-08-22T16:16:33.066Z,26.40
2017-08-22T16:19:01.292Z,25.90
2017-08-22T16:21:28.848Z,25.80
2017-08-22T16:23:56.343Z,25.90
2017-08-22T16:26:23.843Z,26.40
2017-08-22T16:28:51.947Z,26.80
2017-08-22T16:31:19.459Z,26.50
2017-08-22T16:33:47.671Z,26.10
2017-08-22T16:36:15.223Z,26.00
2017-08-22T16:38:43.035Z,26.20
2017-08-22T16:41:10.616Z,26.60
2017-08-22T16:43:38.892Z,26.10
2017-08-22T16:46:06.775Z,25.70
2017-08-22T16:48:34.283Z,25.40
2017-08-22T16:51:02.542Z,24.70
2017-08-22T16:53:30.039Z,24.90
2017-08-22T16:55:57.773Z,25.10
2017-08-22T16:58:25.362Z,25.30
2017-08-22T17:00:53.207Z,25.50
2017-08-22T17:03:20.716Z,25.40
2017-08-22T17:05:49.752Z,25.60
2017-08-22T17:08:17.255Z,25.50
2017-08-22T17:10:45.248Z,25.30
2017-08-22T17:13:13.055Z,25.00
2017-08-22T17:15:40.588Z,25.10
2017-08-22T17:18:08.092Z,24.80
2017-08-22T17:20:35.634Z,24.40
2017-08-22T17:23:03.240Z,24.30
2017-08-22T17:25:30.768Z,24.30
2017-08-22T17:27:58.419Z,24.10
2017-08-22T17:30:25.980Z,24.10
2017-08-22T17:32:53.487Z,23.60
2017-08-22T17:35:21.486Z,23.30
2017-08-22T17:37:48.982Z,23.40
2017-08-22T17:40:16.591Z,23.20
2017-08-22T17:42:44.298Z,23.10
2017-08-22T17:45:11.995Z,23.10
2017-08-22T17:47:39.539Z,23.00
2017-08-22T17:50:07.596Z,22.80
2017-08-22T17:52:35.103Z,22.70
2017-08-22T17:55:02.651Z,22.60
2017-08-22T17:57:30.511Z,22.60
2017-08-22T17:59:58.653Z,22.20
2017-08-22T18:02:26.208Z,22.00
2017-08-22T18:04:54.031Z,21.80
2017-08-22T18:07:21.530Z,21.60
2017-08-22T18:09:49.038Z,21.40
2017-08-22T18:12:16.592Z,21.30
2017-08-22T18:14:44.220Z,21.20
2017-08-22T18:17:11.755Z,21.10
2017-08-22T18:19:39.304Z,20.90
2017-08-22T18:22:06.807Z,20.60
2017-08-22T18:24:34.312Z,20.70
2017-08-22T18:27:03.261Z,20.60
2017-08-22T18:29:30.770Z,20.60
2017-08-22T18:31:58.272Z,20.50
2017-08-22T18:34:26.117Z,20.30
2017-08-22T18:36:53.620Z,20.10
2017-08-22T18:39:21.140Z,19.90
2017-08-22T18:41:49.169Z,19.80
2017-08-22T18:44:16.666Z,19.70
2017-08-22T18:46:44.167Z,19.60
2017-08-22T18:49:11.740Z,19.50
2017-08-22T18:51:39.355Z,19.40
2017-08-22T18:54:06.911Z,19.20
2017-08-22T18:56:35.558Z,19.20
2017-08-22T18:59:03.124Z,19.10
2017-08-22T19:01:31.395Z,19.10
2017-08-22T19:03:59.359Z,19.00
2017-08-22T19:06:27.030Z,18.90
2017-08-22T19:08:54.543Z,18.90
2017-08-22T19:11:22.770Z,18.90
2017-08-22T19:13:50.275Z,18.90
2017-08-22T19:16:17.835Z,18.80
2017-08-22T19:18:45.955Z,18.80
2017-08-22T19:21:14.875Z,18.70
2017-08-22T19:23:42.987Z,18.60
2017-08-22T19:26:10.547Z,18.60
2017-08-22T19:28:39.056Z,18.50
2017-08-22T19:31:06.728Z,18.50
2017-08-22T19:33:34.023Z,18.50
2017-08-22T19:36:01.569Z,18.50
2017-08-22T19:38:29.063Z,18.50
2017-08-22T19:40:56.567Z,18.60
2017-08-22T19:43:24.368Z,18.80
2017-08-22T19:45:51.887Z,18.80
2017-08-22T19:48:19.961Z,18.90
2017-08-22T19:50:47.524Z,19.10
2017-08-22T19:53:15.066Z,19.00
2017-08-22T19:55:42.567Z,19.10
2017-08-22T19:58:10.240Z,18.90
2017-08-22T20:00:37.748Z,18.70
2017-08-22T20:03:05.263Z,18.60
2017-08-22T20:05:32.811Z,18.60
2017-08-22T20:08:00.310Z,18.50
2017-08-22T20:10:27.811Z,18.30
2017-08-22T20:12:55.607Z,18.10
2017-08-22T20:15:23.220Z,18.10
2017-08-22T20:17:50.796Z,18.10
2017-08-22T20:20:18.351Z,18.00
2017-08-22T20:22:45.981Z,17.90
2017-08-22T20:25:13.504Z,17.80
2017-08-22T20:27:41.051Z,17.80
2017-08-22T20:30:08.551Z,17.70
2017-08-22T20:32:36.063Z,17.70
2017-08-22T20:35:03.858Z,17.60
2017-08-22T20:37:31.359Z,17.40
2017-08-22T20:39:58.862Z,17.30
2017-08-22T20:42:26.467Z,17.20
2017-08-22T20:44:54.011Z,17.00
2017-08-22T20:47:21.564Z,16.90
2017-08-22T20:49:50.056Z,16.80
2017-08-22T20:52:17.558Z,16.50
2017-08-22T20:54:45.068Z,16.40
2017-08-22T20:57:13.327Z,16.30
2017-08-22T20:59:40.828Z,16.40
2017-08-22T21:02:08.519Z,16.30
2017-08-22T21:04:36.103Z,16.30
2017-08-22T21:07:03.604Z,16.20
2017-08-22T21:09:31.114Z,16.20
2017-08-22T21:11:59.487Z,16.20
2017-08-22T21:14:27.020Z,16.10
2017-08-22T21:16:54.547Z,16.10
2017-08-22T21:19:22.099Z,15.90
2017-08-22T21:21:49.626Z,15.90
2017-08-22T21:24:17.018Z,15.80
2017-08-22T21:26:44.688Z,15.70
2017-08-22T21:29:12.243Z,15.70
2017-08-22T21:31:39.767Z,15.70
2017-08-22T21:34:08.023Z,15.70
2017-08-22T21:36:35.539Z,15.60
2017-08-22T21:39:03.055Z,15.60
2017-08-22T21:41:30.975Z,15.70
2017-08-22T21:43:58.522Z,15.80
2017-08-22T21:46:26.026Z,15.70
2017-08-22T21:48:53.920Z,15.70
2017-08-22T21:51:21.440Z,15.70
2017-08-22T21:53:48.964Z,15.80
2017-08-22T21:56:16.580Z,15.80
2017-08-22T21:58:44.092Z,15.60
2017-08-22T22:01:11.597Z,15.60
2017-08-22T22:03:39.187Z,15.50
2017-08-22T22:06:06.687Z,15.50
2017-08-22T22:08:34.260Z,15.40
2017-08-22T22:11:01.922Z,15.40
2017-08-22T22:13:29.463Z,15.40
2017-08-22T22:15:57.010Z,15.40
2017-08-22T22:18:24.563Z,15.40
2017-08-22T22:20:52.082Z,15.50
2017-08-22T22:23:19.612Z,15.50
2017-08-22T22:25:48.280Z,15.40
2017-08-22T22:28:15.800Z,15.40
2017-08-22T22:30:43.323Z,15.30
2017-08-22T22:33:10.890Z,15.20
2017-08-22T22:35:38.408Z,15.20
2017-08-22T22:38:05.907Z,15.20
2017-08-22T22:40:33.707Z,15.10
2017-08-22T22:43:01.300Z,15.00
2017-08-22T22:45:28.806Z,15.00
2017-08-22T22:47:56.636Z,15.00
2017-08-22T22:50:24.159Z,14.90
2017-08-22T22:52:51.680Z,15.00
2017-08-22T22:55:19.507Z,14.90
2017-08-22T22:57:47.055Z,14.90
2017-08-22T23:00:14.567Z,14.90
2017-08-22T23:02:42.250Z,14.80
2017-08-22T23:05:09.767Z,14.90
2017-08-22T23:07:37.295Z,14.80
2017-08-22T23:10:05.117Z,14.70
2017-08-22T23:12:32.619Z,14.60
2017-08-22T23:15:00.115Z,14.50
2017-08-22T23:17:27.876Z,14.30
2017-08-22T23:19:55.392Z,14.20
2017-08-22T23:22:22.914Z,14.20
2017-08-22T23:24:50.530Z,14.20
2017-08-22T23:27:18.344Z,14.10
2017-08-22T23:29:45.919Z,14.00
2017-08-22T23:32:13.496Z,13.90
2017-08-22T23:34:41.015Z,13.90
2017-08-22T23:37:08.567Z,14.00
2017-08-22T23:39:36.210Z,13.90
2017-08-22T23:42:03.764Z,14.00
2017-08-22T23:44:31.264Z,14.00
2017-08-22T23:46:59.076Z,14.00
2017-08-22T23:49:26.581Z,14.00
2017-08-22T23:51:54.207Z,13.90
2017-08-22T23:54:22.153Z,13.70
2017-08-22T23:56:49.726Z,13.70
2017-08-22T23:59:17.231Z,13.60
